Time;durP1;ratioP1;P1;durP2;ratioP2;P2;SDS_P1;SDS_P2;PMS_P1;PMS_P2;Temp;Humidity;BMP_temperature;BMP_pressure;BME280_temperature;BME280_humidity;BME280_pressure;Samples;Min_cycle;Max_cycle;Signal;HPM_P1;HPM_P2
2023/10/02 00:02:41;;;;;;;8.00;3.72;;;;;;;-145.63;52.21;39307.81;5021105;28;20037;-70
2023/10/02 00:05:07;;;;;;;7.85;3.42;;;;;;;-145.63;52.54;39417.34;5011522;28;20023;-70
2023/10/02 00:07:35;;;;;;;7.13;3.47;;;;;;;-145.63;51.94;39321.50;5011342;28;20038;-70
2023/10/02 00:10:02;;;;;;;7.03;4.00;;;;;;;-145.63;51.75;39276.53;5008555;28;20029;-69
2023/10/02 00:12:34;;;;;;;7.07;3.47;;;;;;;-145.63;52.10;39305.88;5016570;28;20069;-70
2023/10/02 00:15:11;;;;;;;10.38;3.95;;;;;;;-145.63;52.27;39298.03;5023749;28;20064;-70
2023/10/02 00:17:44;;;;;;;9.27;3.95;;;;;;;-145.63;52.25;39301.94;5023572;28;20184;-71
2023/10/02 00:20:20;;;;;;;5.65;3.20;;;;;;;-145.63;51.78;39249.16;5007296;28;20334;-69
2023/10/02 00:22:46;;;;;;;4.40;3.38;;;;;;;-145.63;52.33;39301.94;5016475;28;20025;-70
2023/10/02 00:25:16;;;;;;;5.75;3.55;;;;;;;-145.63;51.98;39251.09;5015410;28;20031;-69
2023/10/02 00:27:48;;;;;;;8.68;3.65;;;;;;;-145.63;52.50;39274.56;5007749;28;20030;-70
2023/10/02 00:30:16;;;;;;;7.28;4.80;;;;;;;-145.63;52.06;39253.06;5022917;28;20028;-69
2023/10/02 00:32:46;;;;;;;6.68;3.70;;;;;;;-145.63;52.47;39313.69;5003606;28;20049;-71
2023/10/02 00:35:12;;;;;;;6.85;3.70;;;;;;;-145.63;52.20;39288.25;5003319;28;20030;-69
2023/10/02 00:37:47;;;;;;;7.32;3.75;;;;;;;-145.63;52.56;39301.94;5015336;28;20037;-69
2023/10/02 00:40:14;;;;;;;8.43;3.88;;;;;;;-145.63;52.86;39305.88;5014824;28;20118;-72
2023/10/02 00:42:40;;;;;;;7.18;3.80;;;;;;;-145.63;52.94;39294.13;5015123;28;20022;-69
2023/10/02 00:45:08;;;;;;;9.85;4.28;;;;;;;-145.63;52.65;39274.56;5002656;28;20054;-70
2023/10/02 00:47:50;;;;;;;7.53;4.00;;;;;;;-145.63;52.81;39276.53;5022567;28;20306;-70
2023/10/02 00:50:24;;;;;;;;;;;;;;;-145.63;52.80;39278.47;5006179;28;20034;-70
2023/10/02 00:53:00;;;;;;;6.88;3.95;;;;;;;-145.63;53.11;39286.31;5016513;28;19909;-69
2023/10/02 00:55:35;;;;;;;7.97;3.67;;;;;;;-145.63;53.19;39272.63;5023526;28;20025;-69
2023/10/02 00:58:08;;;;;;;7.35;3.72;;;;;;;-145.63;52.71;39329.34;5012260;28;20022;-70
2023/10/02 01:00:42;;;;;;;8.23;4.05;;;;;;;-145.63;53.19;39298.03;5006011;28;20093;-70
2023/10/02 01:03:14;;;;;;;8.23;4.70;;;;;;;-145.63;53.12;39303.91;5023317;28;20080;-70
2023/10/02 01:05:47;;;;;;;;;;;;;;;-145.63;53.25;39264.78;5002925;28;20060;-69
2023/10/02 01:08:23;;;;;;;9.02;3.83;;;;;;;-145.63;53.23;39301.94;5019326;28;20131;-69
2023/10/02 01:10:56;;;;;;;8.93;3.95;;;;;;;-145.63;53.02;39247.19;5010522;28;20106;-69
2023/10/02 01:13:34;;;;;;;8.68;3.92;;;;;;;-145.63;53.27;39352.81;5012760;28;20061;-69
2023/10/02 01:16:09;;;;;;;8.85;4.35;;;;;;;-145.63;52.65;39278.47;5023333;28;20294;-69
2023/10/02 01:18:37;;;;;;;8.00;3.63;;;;;;;-145.63;53.01;39296.09;5020484;28;20026;-68
2023/10/02 01:21:11;;;;;;;7.18;4.38;;;;;;;-145.63;53.04;39382.13;5003543;28;20054;-68
2023/10/02 01:24:06;;;;;;;8.75;4.10;;;;;;;-145.63;53.43;39307.81;5022289;28;20021;-70
2023/10/02 01:26:38;;;;;;;7.82;4.00;;;;;;;-145.63;53.25;39364.53;5004325;28;20298;-71
2023/10/02 01:29:06;;;;;;;7.70;3.72;;;;;;;-145.63;53.26;39292.19;5017737;28;20029;-70
2023/10/02 01:31:35;;;;;;;6.32;3.65;;;;;;;-145.63;53.69;39147.44;5013117;28;20052;-70
2023/10/02 01:34:02;;;;;;;11.02;4.10;;;;;;;-145.63;53.53;39319.56;5012848;28;20222;-68
2023/10/02 01:36:31;;;;;;;7.45;4.00;;;;;;;-145.63;54.03;39301.94;5024577;28;20021;-68
2023/10/02 01:39:10;;;;;;;7.90;4.00;;;;;;;-145.63;53.87;39317.59;5006553;28;20053;-68
2023/10/02 01:41:37;;;;;;;9.60;4.15;;;;;;;-145.63;53.99;39270.66;5025687;28;20026;-69
2023/10/02 01:44:11;;;;;;;11.77;3.97;;;;;;;-145.63;53.71;39292.19;5026082;28;20044;-69
2023/10/02 01:46:50;;;;;;;8.93;4.28;;;;;;;-145.63;53.85;39317.59;5026167;28;20026;-70
2023/10/02 01:49:26;;;;;;;5.63;3.90;;;;;;;-145.63;54.12;39301.94;5026308;28;20159;-70
2023/10/02 01:51:55;;;;;;;8.30;4.07;;;;;;;-145.63;53.93;39260.88;5025337;28;20022;-71
2023/10/02 01:54:22;;;;;;;7.90;3.70;;;;;;;-145.63;53.72;39280.44;5025900;28;20036;-70
2023/10/02 01:56:49;;;;;;;7.28;3.90;;;;;;;-145.63;53.79;39282.41;5022587;28;20137;-70
2023/10/02 01:59:19;;;;;;;9.15;3.95;;;;;;;-145.63;54.36;39446.69;5008260;28;20030;-71
2023/10/02 02:01:57;;;;;;;8.55;3.90;;;;;;;-145.63;54.53;39307.81;5025306;28;20413;-71
2023/10/02 02:04:32;;;;;;;10.63;4.95;;;;;;;-145.63;54.19;39286.31;5036976;28;20369;-70
2023/10/02 02:07:00;;;;;;;5.32;3.70;;;;;;;-145.63;53.64;39272.63;5020620;28;20077;-71
2023/10/02 02:09:27;;;;;;;9.90;4.47;;;;;;;-145.63;53.77;39301.94;5007004;28;20098;-71
2023/10/02 02:12:07;;;;;;;6.20;3.67;;;;;;;-145.63;54.22;39282.41;5025801;28;20026;-70
2023/10/02 02:14:49;;;;;;;8.15;4.00;;;;;;;-145.63;53.38;39292.19;5018330;28;20060;-70
2023/10/02 02:17:27;;;;;;;12.20;4.35;;;;;;;-145.63;53.44;39270.66;5010085;28;20057;-70
2023/10/02 02:19:56;;;;;;;7.15;3.70;;;;;;;-145.63;53.86;39290.22;5018328;28;20426;-70
2023/10/02 02:22:26;;;;;;;8.27;5.18;;;;;;;-145.63;53.43;39348.88;5016980;28;20349;-71
2023/10/02 02:25:12;;;;;;;9.18;4.82;;;;;;;-145.63;53.76;39319.56;5012065;28;20191;-69
2023/10/02 02:27:45;;;;;;;7.80;3.88;;;;;;;-145.63;53.54;39272.63;5025366;28;20022;-69
2023/10/02 02:30:17;;;;;;;7.75;3.95;;;;;;;-145.63;53.60;39301.94;5025231;28;20372;-69
2023/10/02 02:32:54;;;;;;;10.55;4.75;;;;;;;-145.63;53.69;39298.03;5005970;28;20014;-69
2023/10/02 02:35:21;;;;;;;9.55;4.47;;;;;;;-145.63;54.08;39311.72;5005759;28;20053;-70
2023/10/02 02:37:49;;;;;;;9.65;4.90;;;;;;;-145.63;53.98;39294.13;5017033;28;20037;-69
2023/10/02 02:40:29;;;;;;;10.93;4.45;;;;;;;-145.63;53.63;39309.78;5017691;28;20117;-70
2023/10/02 02:42:56;;;;;;;13.90;4.90;;;;;;;-145.63;53.54;39315.66;5022006;28;20036;-69
2023/10/02 02:45:31;;;;;;;6.90;4.45;;;;;;;-145.63;53.54;39282.41;5024375;28;20057;-70
2023/10/02 02:48:07;;;;;;;6.22;4.47;;;;;;;-145.63;53.98;39294.13;5005806;28;20048;-70
2023/10/02 02:50:35;;;;;;;7.15;4.72;;;;;;;-145.63;53.50;39288.25;5020507;28;20026;-69
2023/10/02 02:53:16;;;;;;;9.75;4.97;;;;;;;-145.63;53.62;39321.50;5018755;28;20026;-70
2023/10/02 02:55:44;;;;;;;8.50;4.40;;;;;;;-145.63;53.73;39243.28;5024941;28;20052;-71
2023/10/02 02:58:10;;;;;;;7.18;4.90;;;;;;;-145.63;53.92;39294.13;5014470;28;20037;-70
2023/10/02 03:00:39;;;;;;;8.07;5.13;;;;;;;-145.63;53.54;39305.88;5011714;28;20068;-69
2023/10/02 03:05:52;;;;;;;8.15;4.25;;;;;;;-145.63;53.02;39313.69;5014716;28;20037;-70
2023/10/02 03:08:19;;;;;;;8.93;4.57;;;;;;;-145.63;53.04;39184.59;5008906;28;20028;-70
2023/10/02 03:10:57;;;;;;;7.90;4.63;;;;;;;-145.63;52.75;39266.75;5009103;28;20226;-69
2023/10/02 03:13:22;;;;;;;6.13;4.53;;;;;;;-145.63;52.73;39247.19;5013002;28;20037;-69
2023/10/02 03:15:49;;;;;;;12.32;5.75;;;;;;;-145.63;53.18;39333.25;5019856;28;20046;-70
2023/10/02 03:18:31;;;;;;;8.35;5.00;;;;;;;-145.63;52.94;39280.44;5004907;28;20037;-70
2023/10/02 03:21:06;;;;;;;11.02;5.13;;;;;;;-145.63;53.21;39290.22;5004836;28;20046;-70
2023/10/02 03:23:38;;;;;;;9.98;6.70;;;;;;;-145.63;52.95;39303.91;5022396;28;20025;-70
2023/10/02 03:26:21;;;;;;;8.18;5.22;;;;;;;-145.63;52.81;39350.84;5024182;28;20025;-69
2023/10/02 03:28:48;;;;;;;10.02;5.10;;;;;;;-145.63;52.75;39311.72;5012968;28;20102;-69
2023/10/02 03:31:17;;;;;;;9.77;5.57;;;;;;;-145.63;52.90;39337.16;5005912;28;20018;-69
2023/10/02 03:33:42;;;;;;;8.75;5.43;;;;;;;-145.63;53.08;39294.13;5017510;28;20031;-71
2023/10/02 03:36:10;;;;;;;8.30;5.18;;;;;;;-145.63;53.31;39446.69;5023573;28;20080;-70
2023/10/02 03:38:41;;;;;;;8.20;5.65;;;;;;;-145.63;52.79;39474.06;5022453;28;20061;-70
2023/10/02 03:41:13;;;;;;;7.70;5.10;;;;;;;-145.63;53.13;39296.09;5011799;28;20033;-70
2023/10/02 03:43:46;;;;;;;8.40;6.05;;;;;;;-145.63;53.53;39325.41;5009841;28;20482;-69
2023/10/02 03:46:22;;;;;;;9.82;5.85;;;;;;;-145.63;53.23;39282.41;5010641;28;20026;-69
2023/10/02 03:48:58;;;;;;;8.50;6.47;;;;;;;-145.63;53.46;39301.94;5022463;28;20068;-70
2023/10/02 03:51:40;;;;;;;9.52;5.57;;;;;;;-145.63;53.07;39298.03;5032247;28;20336;-70
2023/10/02 03:54:18;;;;;;;8.60;5.32;;;;;;;-145.63;52.82;39309.78;5017370;28;20037;-69
2023/10/02 03:56:51;;;;;;;6.32;5.00;;;;;;;-145.63;53.42;39333.25;5022535;28;20041;-70
2023/10/02 03:59:22;;;;;;;8.93;5.50;;;;;;;-145.63;53.05;39303.91;5016618;28;20037;-69
2023/10/02 04:01:51;;;;;;;10.05;6.20;;;;;;;-145.63;52.94;39329.34;5019428;28;20025;-67
2023/10/02 04:04:21;;;;;;;6.78;5.35;;;;;;;-145.63;52.79;39313.69;5010606;28;20051;-67
2023/10/02 04:06:53;;;;;;;7.95;5.55;;;;;;;-145.63;53.33;39311.72;5005193;28;20141;-68
2023/10/02 04:09:26;;;;;;;8.23;5.68;;;;;;;-145.63;53.31;39262.84;5003990;28;20042;-68
2023/10/02 04:11:55;;;;;;;9.13;5.80;;;;;;;-145.63;53.75;39296.09;5023358;28;20040;-68
2023/10/02 04:14:32;;;;;;;12.45;6.50;;;;;;;-145.63;54.14;39362.59;5026184;28;20043;-69
2023/10/02 04:19:49;;;;;;;11.02;6.15;;;;;;;-145.63;53.59;39329.34;5012464;28;20196;-68
2023/10/02 04:22:25;;;;;;;;;;;;;;;-145.63;53.09;39288.25;5007815;28;20026;-69
2023/10/02 04:24:59;;;;;;;8.32;6.15;;;;;;;-145.63;53.79;39311.72;5006588;28;19921;-68
2023/10/02 04:32:39;;;;;;;9.60;6.72;;;;;;;-145.63;54.58;39260.88;5020862;28;20061;-68
2023/10/02 04:35:44;;;;;;;9.68;6.47;;;;;;;-145.63;54.76;39311.72;5010416;28;20094;-67
2023/10/02 04:37:58;;;;;;;9.77;6.32;;;;;;;-145.63;54.29;39309.78;5003032;28;20258;-66
2023/10/02 04:40:37;;;;;;;10.82;6.95;;;;;;;-145.63;54.21;39317.59;5010711;28;20045;-66
2023/10/02 04:43:19;;;;;;;8.05;5.97;;;;;;;-145.63;54.32;39317.59;5023223;28;20094;-66
2023/10/02 04:45:47;;;;;;;8.05;6.00;;;;;;;-145.63;54.23;39344.97;5020866;28;20310;-66
2023/10/02 04:48:14;;;;;;;8.48;5.63;;;;;;;-145.63;54.29;39325.41;5003407;28;20037;-67
2023/10/02 04:50:46;;;;;;;10.23;5.70;;;;;;;-145.63;54.15;39323.47;5020975;28;20133;-68
2023/10/02 04:55:41;;;;;;;8.35;6.00;;;;;;;-145.63;54.35;39303.91;5022931;28;20186;-67
2023/10/02 04:58:13;;;;;;;7.40;5.70;;;;;;;-145.63;53.98;39305.88;5009523;28;20030;-68
2023/10/02 05:01:18;;;;;;;7.65;6.13;;;;;;;-145.63;53.97;39313.69;5007662;28;20031;-68
2023/10/02 05:03:27;;;;;;;7.88;5.88;;;;;;;-145.63;54.11;39290.22;5003207;28;20057;-68
2023/10/02 05:05:54;;;;;;;10.38;5.38;;;;;;;-145.63;54.22;39296.09;5022283;28;20038;-68
2023/10/02 05:08:40;;;;;;;10.45;5.57;;;;;;;-145.63;54.25;39315.66;5014709;28;20056;-68
2023/10/02 05:11:23;;;;;;;7.43;5.72;;;;;;;-145.63;54.49;39317.59;5011580;28;20065;-68
2023/10/02 05:16:46;;;;;;;;;;;;;;;-145.63;54.00;39313.69;5020378;28;20030;-68
2023/10/02 05:19:14;;;;;;;6.55;4.82;;;;;;;-145.63;53.57;39309.78;5010585;28;19921;-69
2023/10/02 05:21:49;;;;;;;7.20;5.32;;;;;;;-145.63;54.51;39366.50;5008535;28;20098;-67
2023/10/02 05:24:18;;;;;;;9.70;5.30;;;;;;;-145.63;54.25;39321.50;5026071;28;20109;-68
2023/10/02 05:26:46;;;;;;;6.53;4.85;;;;;;;-145.63;54.44;39350.84;5008349;28;20041;-68
2023/10/02 05:29:17;;;;;;;8.23;5.75;;;;;;;-145.63;54.61;39321.50;5020227;28;20065;-67
2023/10/02 05:31:45;;;;;;;7.28;5.15;;;;;;;-145.63;54.61;39321.50;5026500;28;20029;-68
2023/10/02 05:34:23;;;;;;;7.70;5.43;;;;;;;-145.63;55.07;39356.72;5025964;28;20073;-68
2023/10/02 05:37:11;;;;;;;5.13;4.60;;;;;;;-145.63;54.95;39327.38;5023725;28;20097;-68
2023/10/02 05:39:41;;;;;;;9.10;5.50;;;;;;;-145.63;54.65;39321.50;5006313;28;20041;-68
2023/10/02 05:42:13;;;;;;;10.18;5.78;;;;;;;-145.63;54.67;39327.38;5015482;28;20326;-70
2023/10/02 05:44:39;;;;;;;7.47;5.13;;;;;;;-145.63;54.86;39313.69;5004436;28;20046;-68
2023/10/02 05:47:05;;;;;;;11.55;7.60;;;;;;;-145.63;54.43;39305.88;5009188;28;20033;-69
2023/10/02 05:49:38;;;;;;;8.55;5.22;;;;;;;-145.63;54.65;39348.88;5015964;28;20034;-68
2023/10/02 05:52:07;;;;;;;11.77;6.60;;;;;;;-145.63;54.49;39321.50;5015182;28;20022;-68
2023/10/02 05:54:37;;;;;;;11.13;6.07;;;;;;;-145.63;54.46;39315.66;5024685;28;20093;-68
2023/10/02 05:57:12;;;;;;;11.77;6.07;;;;;;;-145.63;54.65;39300.00;5009305;28;20242;-69
2023/10/02 05:59:48;;;;;;;12.43;6.60;;;;;;;-145.63;54.11;39292.19;5010332;28;20098;-69
2023/10/02 06:02:19;;;;;;;8.20;5.88;;;;;;;-145.63;54.76;39339.13;5019471;28;20029;-69
2023/10/02 06:04:49;;;;;;;7.35;5.60;;;;;;;-145.63;54.49;39309.78;5012317;28;20030;-69
2023/10/02 06:07:19;;;;;;;6.95;5.50;;;;;;;-145.63;54.71;39274.56;5009509;28;20065;-69
2023/10/02 06:09:46;;;;;;;7.68;6.82;;;;;;;-145.63;53.94;39327.38;5025083;28;20222;-68
2023/10/02 06:12:13;;;;;;;8.00;6.00;;;;;;;-145.63;54.29;39300.00;5025391;28;20112;-68
2023/10/02 06:14:39;;;;;;;9.65;6.85;;;;;;;-145.63;54.11;39292.19;5019818;28;20088;-67
2023/10/02 06:17:11;;;;;;;9.35;6.15;;;;;;;-145.63;53.42;39256.97;5013504;28;20027;-68
2023/10/02 06:19:42;;;;;;;5.70;4.85;;;;;;;-145.63;54.42;39300.00;5013804;28;20022;-68
2023/10/02 06:22:13;;;;;;;6.80;5.77;;;;;;;-145.63;53.75;39339.13;5019982;28;20030;-69
2023/10/02 06:24:43;;;;;;;7.47;5.40;;;;;;;-145.63;54.21;39303.91;5005076;28;20823;-69
2023/10/02 06:27:17;;;;;;;9.30;5.28;;;;;;;-145.63;53.41;39290.22;5025405;28;20033;-69
2023/10/02 06:29:44;;;;;;;10.75;8.10;;;;;;;-145.63;53.39;39272.63;5025244;28;20034;-68
2023/10/02 06:32:14;;;;;;;7.97;4.82;;;;;;;-145.63;53.30;39296.09;5012355;28;20110;-68
2023/10/02 06:34:43;;;;;;;7.35;5.55;;;;;;;-145.63;53.40;39251.09;5005503;28;20029;-67
2023/10/02 06:37:21;;;;;;;6.28;5.40;;;;;;;-145.63;53.23;39268.72;5009762;28;20117;-68
2023/10/02 06:40:04;;;;;;;10.95;5.78;;;;;;;-145.63;53.48;39294.13;5023475;28;20093;-68
2023/10/02 06:42:32;;;;;;;8.77;5.82;;;;;;;-145.63;53.19;39280.44;5019480;28;20292;-69
2023/10/02 06:45:01;;;;;;;12.18;6.55;;;;;;;-145.63;53.21;39309.78;5025007;28;20092;-69
2023/10/02 06:47:32;;;;;;;9.48;6.57;;;;;;;-145.63;53.20;39290.22;5010242;28;20031;-68
2023/10/02 06:50:35;;;;;;;10.87;7.20;;;;;;;-145.63;53.42;39300.00;5015961;28;20318;-69
2023/10/02 06:52:51;;;;;;;12.55;7.30;;;;;;;-145.63;53.36;39296.09;5022296;28;20108;-68
2023/10/02 06:55:17;;;;;;;11.95;7.97;;;;;;;-145.63;52.98;39284.34;5024544;28;20029;-68
2023/10/02 06:57:52;;;;;;;13.75;8.80;;;;;;;-145.63;53.65;39274.56;5023589;28;20022;-68
2023/10/02 07:00:22;;;;;;;13.20;8.82;;;;;;;-145.63;53.60;39282.41;5004736;28;20101;-68
2023/10/02 07:22:16;;;;;;;11.43;8.38;;;;;;;-145.63;55.03;39298.03;4362098;27;1462136;-68
2023/10/02 07:24:46;;;;;;;11.90;7.60;;;;;;;-145.63;55.45;39305.88;5077433;28;20224;-67
2023/10/02 07:27:25;;;;;;;11.88;8.50;;;;;;;-145.63;54.65;39282.41;5099070;28;20024;-67
2023/10/02 07:29:59;;;;;;;8.27;6.28;;;;;;;-145.63;54.69;39331.28;5094992;28;20278;-68
2023/10/02 07:32:32;;;;;;;10.20;5.97;;;;;;;-145.63;55.18;39327.38;5097705;28;20043;-67
2023/10/02 07:35:17;;;;;;;9.00;5.15;;;;;;;-145.63;54.97;39315.66;5098546;28;20042;-69
2023/10/02 07:37:42;;;;;;;7.75;5.00;;;;;;;-145.63;54.66;39298.03;5096337;28;20020;-68
2023/10/02 07:40:09;;;;;;;7.32;5.13;;;;;;;-145.63;54.96;39305.88;5097266;28;20035;-67
2023/10/02 07:42:34;;;;;;;8.93;4.70;;;;;;;-145.63;54.74;39301.94;5099894;28;20331;-68
2023/10/02 07:45:11;;;;;;;13.25;5.65;;;;;;;-145.63;54.88;39309.78;5099709;28;20035;-68
2023/10/02 07:50:33;;;;;;;9.10;4.43;;;;;;;-145.63;53.96;39288.25;5099810;28;20032;-68
2023/10/02 07:53:04;;;;;;;4.65;3.78;;;;;;;-145.63;54.11;39321.50;5098656;28;20050;-70
2023/10/02 07:55:31;;;;;;;7.82;3.72;;;;;;;-145.63;54.48;39337.16;5088854;28;20028;-69
2023/10/02 07:58:01;;;;;;;9.57;3.67;;;;;;;-145.63;53.94;39311.72;5099143;28;20181;-66
2023/10/02 08:00:37;;;;;;;6.35;3.42;;;;;;;-145.63;53.98;39343.03;5099567;28;20120;-67
2023/10/02 08:06:00;;;;;;;5.68;4.22;;;;;;;-145.63;53.89;39372.34;5099295;28;20091;-69
2023/10/02 08:08:31;;;;;;;6.53;3.90;;;;;;;-145.63;53.84;39315.66;5098539;28;20253;-70
2023/10/02 08:10:58;;;;;;;;;;;;;;;-145.63;53.71;39337.16;5100148;28;20024;-69
2023/10/02 08:13:33;;;;;;;4.32;3.17;;;;;;;-145.63;54.37;39311.72;5098200;28;20123;-69
2023/10/02 08:16:14;;;;;;;4.97;2.70;;;;;;;-145.63;53.39;39292.19;5099278;28;20027;-69
2023/10/02 08:18:58;;;;;;;4.83;2.57;;;;;;;-145.63;52.65;39292.19;5099710;28;20102;-69
2023/10/02 08:24:11;;;;;;;3.47;2.63;;;;;;;-145.63;53.00;39280.44;5101543;28;20046;-68
2023/10/02 08:26:41;;;;;;;4.00;2.40;;;;;;;-145.63;53.23;39294.13;5119726;28;20020;-69
2023/10/02 08:29:10;;;;;;;3.53;1.90;;;;;;;-145.63;52.60;39282.41;5119595;28;20020;-69
2023/10/02 08:31:43;;;;;;;2.65;2.10;;;;;;;-145.63;52.60;39264.78;5116478;28;20096;-68
2023/10/02 08:34:19;;;;;;;2.90;2.33;;;;;;;-145.63;52.55;39333.25;5106317;28;20032;-69
2023/10/02 08:36:47;;;;;;;5.55;2.33;;;;;;;-145.63;51.96;39309.78;5105692;28;20031;-69
2023/10/02 08:39:12;;;;;;;3.40;2.50;;;;;;;-145.63;53.80;39149.41;5105866;28;20032;-69
2023/10/02 08:41:44;;;;;;;4.30;2.50;;;;;;;-145.63;53.43;39307.81;5101101;28;20251;-68
2023/10/02 08:44:13;;;;;;;3.63;2.72;;;;;;;-145.63;53.81;39278.47;5085831;28;20032;-69
2023/10/02 08:46:43;;;;;;;4.53;2.35;;;;;;;-145.63;52.54;39278.47;5085717;28;20213;-68
2023/10/02 08:49:12;;;;;;;7.53;2.22;;;;;;;-145.63;53.04;39219.81;5102527;28;20324;-69
2023/10/02 08:51:39;;;;;;;6.35;2.47;;;;;;;-145.63;52.91;39196.34;5105447;28;20095;-68
2023/10/02 08:54:06;;;;;;;3.97;1.92;;;;;;;-145.63;52.93;39255.00;5105280;28;20028;-68
2023/10/02 08:56:46;;;;;;;5.30;2.67;;;;;;;-145.63;52.54;39255.00;5071330;28;20030;-68
2023/10/02 08:59:26;;;;;;;4.25;2.30;;;;;;;-145.63;52.50;39309.78;5079359;28;20340;-68
2023/10/02 09:02:08;;;;;;;4.18;1.75;;;;;;;-145.63;51.18;39323.47;5105392;28;20027;-69
2023/10/02 09:04:34;;;;;;;1.80;1.55;;;;;;;-145.63;51.33;39282.41;5105156;28;20040;-67
2023/10/02 09:07:14;;;;;;;3.65;1.90;;;;;;;-145.63;51.04;39251.09;5105248;28;20265;-69
2023/10/02 09:09:45;;;;;;;4.35;1.92;;;;;;;-145.63;51.27;39298.03;5086970;28;20028;-68
2023/10/02 09:12:15;;;;;;;3.60;1.90;;;;;;;-145.63;50.80;39286.31;5104963;28;20024;-68
2023/10/02 09:14:41;;;;;;;4.15;2.30;;;;;;;-145.63;50.96;39286.31;5100589;28;20024;-68
2023/10/02 09:29:45;;;;;;;3.20;2.28;;;;;;;-145.63;52.70;39255.00;5109474;27;1368896;-67
2023/10/02 09:32:21;;;;;;;3.15;2.60;;;;;;;-145.63;52.32;39294.13;5134172;27;20030;-68
2023/10/02 09:35:10;;;;;;;5.18;3.25;;;;;;;-145.63;52.38;39288.25;5141376;27;20200;-67
2023/10/02 09:37:45;;;;;;;4.53;2.38;;;;;;;-145.63;51.73;39278.47;5140044;28;20020;-69
2023/10/02 09:40:17;;;;;;;5.40;2.90;;;;;;;-145.63;51.55;39276.53;5140117;28;20031;-69
2023/10/02 09:42:48;;;;;;;4.47;2.38;;;;;;;-145.63;51.16;39258.94;5140026;28;20015;-69
2023/10/02 09:45:30;;;;;;;6.05;2.45;;;;;;;-145.63;51.47;39260.88;5141430;27;20047;-69
2023/10/02 09:48:00;;;;;;;2.65;2.22;;;;;;;-145.63;51.28;39247.19;5141057;27;20027;-71
2023/10/02 09:50:29;;;;;;;3.55;2.70;;;;;;;-145.63;51.06;39208.06;5141077;27;20034;-69
2023/10/02 09:52:58;;;;;;;3.00;2.28;;;;;;;-145.63;50.54;39276.53;5139517;28;20037;-69
2023/10/02 09:55:57;;;;;;;4.47;3.08;;;;;;;-145.63;50.97;39219.81;5141104;27;20043;-67
2023/10/02 09:58:55;;;;;;;3.10;2.03;;;;;;;-145.63;50.62;39270.66;5138329;27;20048;-68
2023/10/02 10:03:50;;;;;;;5.93;2.60;;;;;;;-145.63;51.37;39245.25;5140722;27;20038;-68
2023/10/02 10:06:19;;;;;;;3.60;2.33;;;;;;;-145.63;51.11;39213.94;5139633;28;20068;-68
2023/10/02 10:11:42;;;;;;;3.70;2.20;;;;;;;-145.63;51.18;39243.28;5140473;27;20054;-68
2023/10/02 10:14:45;;;;;;;3.67;2.10;;;;;;;-145.63;51.02;39264.78;5118686;28;20024;-68
2023/10/02 10:17:16;;;;;;;5.60;2.28;;;;;;;-145.63;50.89;39251.09;5127684;28;20085;-68
2023/10/02 10:19:53;;;;;;;;;;;;;;;-145.63;50.80;39253.06;5128936;28;20308;-68
2023/10/02 10:22:53;;;;;;;4.85;2.80;;;;;;;-145.63;50.84;39258.94;5138998;28;19934;-67
2023/10/02 10:30:50;;;;;;;5.43;2.42;;;;;;;-145.63;50.78;39255.00;5101727;27;20046;-68
2023/10/02 10:33:16;;;;;;;3.72;2.45;;;;;;;-145.63;50.83;39288.25;5119538;28;20023;-68
2023/10/02 10:35:55;;;;;;;3.10;2.22;;;;;;;-145.63;50.88;39253.06;5136388;28;20022;-67
2023/10/02 10:38:42;;;;;;;4.10;2.40;;;;;;;-145.63;50.99;39262.84;5140128;27;20354;-67
2023/10/02 10:41:31;;;;;;;4.05;2.60;;;;;;;-145.63;50.90;39270.66;5111946;28;20078;-66
2023/10/02 10:43:58;;;;;;;6.38;2.65;;;;;;;-145.63;51.12;39219.81;5105731;28;20081;-67
2023/10/02 10:46:31;;;;;;;2.72;2.22;;;;;;;-145.63;51.13;39292.19;5095060;28;20098;-68
2023/10/02 10:49:07;;;;;;;3.83;2.75;;;;;;;-145.63;51.16;39268.72;5105399;28;20024;-67
2023/10/02 10:51:39;;;;;;;5.78;3.00;;;;;;;-145.63;51.25;39235.47;5108585;28;20036;-67
2023/10/02 10:54:13;;;;;;;2.58;2.35;;;;;;;-145.63;50.59;39131.81;5104654;28;20044;-67
2023/10/02 10:56:44;;;;;;;6.38;2.38;;;;;;;-145.63;50.41;39251.09;5108987;28;20028;-67
2023/10/02 10:59:24;;;;;;;4.88;2.50;;;;;;;-145.63;50.22;39237.41;5110154;28;20145;-67
2023/10/02 11:02:09;;;;;;;6.10;2.60;;;;;;;-145.63;50.78;39055.53;5094120;28;20251;-67
2023/10/02 11:04:39;;;;;;;6.35;2.55;;;;;;;-145.63;50.65;39210.03;5107632;28;20024;-67
2023/10/02 11:07:25;;;;;;;4.07;2.40;;;;;;;-145.63;50.04;39225.69;5105596;28;20028;-66
2023/10/02 11:13:01;;;;;;;7.45;4.68;;;;;;;-145.63;50.04;39247.19;5113248;28;20040;-68
2023/10/02 11:15:47;;;;;;;5.15;2.33;;;;;;;-145.63;50.26;39188.53;5112611;28;20084;-67
2023/10/02 11:18:21;;;;;;;9.85;2.38;;;;;;;-145.63;50.68;39270.66;5114846;28;20024;-67
2023/10/02 11:20:54;;;;;;;4.80;2.30;;;;;;;-145.63;50.35;39213.94;5104084;28;20026;-67
2023/10/02 11:23:45;;;;;;;4.82;2.20;;;;;;;-145.63;50.30;39192.44;5110203;28;20043;-68
2023/10/02 11:26:12;;;;;;;4.20;2.20;;;;;;;-145.63;50.34;39157.22;5108350;27;20031;-68
2023/10/02 11:28:40;;;;;;;3.90;2.40;;;;;;;-145.63;49.92;39180.69;5115438;28;20109;-66
2023/10/02 11:31:29;;;;;;;4.38;2.03;;;;;;;-145.63;49.90;39153.31;5098813;28;20345;-65
2023/10/02 11:34:04;;;;;;;4.32;2.08;;;;;;;-145.63;49.58;39155.28;5093876;28;20044;-68
2023/10/02 11:36:36;;;;;;;18.13;15.75;;;;;;;-145.63;49.13;39247.19;5098911;28;20068;-67
2023/10/02 11:39:16;;;;;;;3.50;2.60;;;;;;;-145.63;49.30;39229.59;5104569;28;20024;-66
2023/10/02 11:41:44;;;;;;;23.45;16.67;;;;;;;-145.63;49.17;39155.28;5104657;28;20046;-67
2023/10/02 11:44:12;;;;;;;17.85;11.65;;;;;;;-145.63;49.08;39194.38;5104429;28;20020;-68
2023/10/02 11:46:40;;;;;;;9.82;5.18;;;;;;;-145.63;49.10;39133.75;5104883;28;20039;-67
2023/10/02 11:49:07;;;;;;;12.63;7.95;;;;;;;-145.63;49.24;39168.97;5110254;28;20036;-67
2023/10/02 11:51:33;;;;;;;8.25;5.30;;;;;;;-145.63;48.53;39208.06;5101771;28;20475;-68
2023/10/02 11:54:01;;;;;;;10.85;3.40;;;;;;;-145.63;47.76;39168.97;5086302;28;20024;-68
2023/10/02 11:56:27;;;;;;;8.25;3.17;;;;;;;-145.63;47.96;39202.22;5089256;28;20027;-67
2023/10/02 11:58:53;;;;;;;12.00;6.20;;;;;;;-145.63;47.81;39221.78;5093723;28;20264;-70
2023/10/02 12:01:21;;;;;;;5.63;2.75;;;;;;;-145.63;48.07;39168.97;5104221;28;20019;-67
2023/10/02 12:03:48;;;;;;;8.70;2.78;;;;;;;-145.63;47.97;39168.97;5098353;28;20035;-69
2023/10/02 12:06:14;;;;;;;4.82;2.63;;;;;;;-145.63;47.34;39129.84;5095295;28;20127;-68
2023/10/02 12:08:40;;;;;;;6.90;3.05;;;;;;;-145.63;46.98;39190.47;5101969;28;20031;-68
2023/10/02 12:11:08;;;;;;;5.70;2.80;;;;;;;-145.63;47.28;39153.31;5095133;28;20016;-68
2023/10/02 12:13:34;;;;;;;5.07;2.55;;;;;;;-145.63;47.89;39180.69;5095558;28;20024;-68
2023/10/02 12:16:02;;;;;;;4.15;2.17;;;;;;;-145.63;47.28;39180.69;5093449;28;20027;-68
2023/10/02 12:18:29;;;;;;;4.55;2.78;;;;;;;-145.63;47.62;39165.06;5093010;28;20020;-68
2023/10/02 12:20:56;;;;;;;4.03;2.90;;;;;;;-145.63;47.30;39116.16;5108696;28;20032;-68
2023/10/02 12:23:22;;;;;;;4.80;2.28;;;;;;;-145.63;46.53;39143.53;5098884;28;20051;-69
2023/10/02 12:25:48;;;;;;;3.15;2.45;;;;;;;-145.63;46.50;39147.44;5100127;28;20034;-68
2023/10/02 12:28:15;;;;;;;4.65;2.58;;;;;;;-145.63;46.61;39170.91;5113958;28;20044;-70
2023/10/02 12:30:41;;;;;;;5.57;3.28;;;;;;;-145.63;46.82;39114.22;5109826;28;20043;-68
2023/10/02 12:33:09;;;;;;;3.95;2.72;;;;;;;-145.63;46.69;39118.13;5085178;28;20146;-69
2023/10/02 12:35:39;;;;;;;8.10;2.60;;;;;;;-145.63;46.78;39157.22;5091529;28;20069;-67
2023/10/02 12:38:07;;;;;;;3.95;2.75;;;;;;;-145.63;46.71;39176.78;5101985;28;20016;-68
2023/10/02 12:40:33;;;;;;;4.60;2.60;;;;;;;-145.63;46.12;39192.44;5103791;28;20031;-67
2023/10/02 12:43:03;;;;;;;6.65;2.90;;;;;;;-145.63;45.66;39145.50;5109413;28;20137;-67
2023/10/02 12:45:35;;;;;;;4.45;2.45;;;;;;;-145.63;46.39;39182.66;5101953;28;20034;-67
2023/10/02 12:48:06;;;;;;;5.35;3.22;;;;;;;-145.63;45.60;39102.47;5103887;28;20024;-67
2023/10/02 12:50:37;;;;;;;4.88;2.00;;;;;;;-145.63;45.56;39202.22;5104544;28;20016;-68
2023/10/02 12:53:04;;;;;;;3.92;2.60;;;;;;;-145.63;45.98;39155.28;5103430;28;20317;-68